Terminal Aerodrome Forecast
Issued by NWS

Home | Current Version | Previous Version | Text Only | Print | Product List | Glossary On
Versions: 1 2 3 4 5 6 7 8 9 10 11 12 13 14 15
000
FTUS42 TJSJ 022343
TAFNCM
TAF
TNCM 022343Z 0300/0324 09007KT P6SM VCSH SCT020 BKN040
      TEMPO 0300/0302 -SHRA FEW020 SCT030
     FM031330 12010KT P6SM -SHRA FEW018 FEW022 SCT040
     FM032330 10005KT P6SM VCSH FEW020 SCT030=

USA.gov is the U.S. government's official web portal to all federal, state and local government web resources and services.